createdAt,value
2018-01-20T00:00:37.409Z,0.00
2018-01-20T00:01:37.375Z,0.00
2018-01-20T00:03:30.692Z,0.00
2018-01-20T00:04:30.669Z,0.00
2018-01-20T00:06:23.502Z,0.00
2018-01-20T00:07:23.464Z,0.00
2018-01-20T00:09:16.776Z,0.00
2018-01-20T00:10:17.138Z,0.00
2018-01-20T00:12:09.730Z,0.00
2018-01-20T00:13:09.561Z,0.00
2018-01-20T00:15:02.609Z,0.00
2018-01-20T00:16:02.567Z,0.00
2018-01-20T00:17:55.190Z,0.00
2018-01-20T00:18:55.418Z,0.00
2018-01-20T00:20:47.982Z,0.00
2018-01-20T00:21:47.952Z,0.00
2018-01-20T00:23:40.788Z,0.00
2018-01-20T00:24:40.746Z,0.00
2018-01-20T00:26:33.570Z,0.00
2018-01-20T00:27:33.545Z,0.00
2018-01-20T00:29:26.783Z,0.00
2018-01-20T00:30:26.340Z,0.00
2018-01-20T00:32:19.167Z,0.00
2018-01-20T00:33:19.138Z,0.00
2018-01-20T00:35:12.466Z,0.00
2018-01-20T00:36:12.434Z,0.00
2018-01-20T00:38:05.249Z,0.00
2018-01-20T00:39:05.226Z,0.00
2018-01-20T00:40:58.060Z,0.00
2018-01-20T00:41:58.020Z,0.00
2018-01-20T00:43:50.862Z,0.00
2018-01-20T00:44:50.824Z,0.00
2018-01-20T00:46:44.148Z,0.00
2018-01-20T00:47:44.118Z,0.00
2018-01-20T00:49:37.431Z,0.00
2018-01-20T00:50:37.403Z,0.00
2018-01-20T00:52:30.239Z,0.00
2018-01-20T00:53:30.209Z,0.00
2018-01-20T00:55:23.024Z,0.00
2018-01-20T00:56:22.998Z,0.00
2018-01-20T00:58:15.840Z,0.00
2018-01-20T00:59:15.917Z,0.00
2018-01-20T01:01:08.623Z,0.00
2018-01-20T01:02:08.963Z,0.00
2018-01-20T01:04:01.435Z,0.00
2018-01-20T01:05:01.505Z,0.00
2018-01-20T01:06:54.226Z,0.00
2018-01-20T01:07:54.193Z,0.00
2018-01-20T01:09:47.030Z,0.00
2018-01-20T01:10:46.991Z,0.00
2018-01-20T01:12:39.813Z,0.00
2018-01-20T01:13:39.791Z,0.00
2018-01-20T01:15:32.617Z,0.00
2018-01-20T01:16:32.583Z,0.00
2018-01-20T01:18:25.410Z,0.00
2018-01-20T01:19:25.382Z,0.00
2018-01-20T01:21:18.218Z,0.00
2018-01-20T01:22:18.183Z,0.00
2018-01-20T01:24:11.495Z,0.00
2018-01-20T01:25:11.473Z,0.00
2018-01-20T01:27:04.305Z,0.00
2018-01-20T01:28:04.264Z,0.00
2018-01-20T01:29:57.090Z,0.00
2018-01-20T01:30:57.063Z,0.00
2018-01-20T01:32:49.900Z,0.00
2018-01-20T01:33:49.860Z,0.00
2018-01-20T01:35:42.722Z,0.00
2018-01-20T01:36:42.666Z,0.00
2018-01-20T01:38:35.507Z,0.00
2018-01-20T01:39:35.474Z,0.00
2018-01-20T01:41:28.292Z,0.00
2018-01-20T01:42:28.263Z,0.00
2018-01-20T01:44:21.593Z,0.00
2018-01-20T01:45:21.561Z,0.00
2018-01-20T01:47:14.387Z,0.00
2018-01-20T01:48:14.360Z,0.00
2018-01-20T01:50:07.202Z,0.00
2018-01-20T01:51:07.167Z,0.00
2018-01-20T01:52:59.999Z,0.00
2018-01-20T01:53:59.968Z,0.00
2018-01-20T01:55:52.801Z,0.00
2018-01-20T01:56:52.758Z,0.00
2018-01-20T01:58:45.578Z,0.00
2018-01-20T01:59:45.554Z,0.00
2018-01-20T02:01:38.386Z,0.00
2018-01-20T02:02:38.347Z,0.00
2018-01-20T02:04:31.177Z,0.00
2018-01-20T02:05:31.149Z,0.00
2018-01-20T02:07:23.979Z,0.00
2018-01-20T02:08:23.939Z,0.00
2018-01-20T02:10:16.764Z,0.00
2018-01-20T02:11:16.736Z,0.00
2018-01-20T02:13:09.570Z,0.00
2018-01-20T02:14:09.536Z,0.00
2018-01-20T02:16:02.393Z,0.00
2018-01-20T02:17:02.328Z,0.00
2018-01-20T02:18:55.160Z,0.00
2018-01-20T02:19:55.125Z,0.00
2018-01-20T02:21:47.955Z,0.00
2018-01-20T02:22:47.919Z,0.00
2018-01-20T02:24:40.734Z,0.00
2018-01-20T02:25:40.715Z,0.00
2018-01-20T02:27:33.552Z,0.00
2018-01-20T02:28:33.511Z,0.00
2018-01-20T02:30:26.332Z,0.00
2018-01-20T02:31:26.305Z,0.00
2018-01-20T02:33:19.139Z,0.00
2018-01-20T02:34:19.099Z,0.00
2018-01-20T02:36:11.923Z,0.00
2018-01-20T02:37:11.896Z,0.00
2018-01-20T02:39:04.725Z,0.00
2018-01-20T02:40:04.686Z,0.00
2018-01-20T02:41:57.508Z,0.00
2018-01-20T02:42:57.474Z,0.00
2018-01-20T02:44:50.310Z,0.00
2018-01-20T02:45:50.271Z,0.00
2018-01-20T02:47:43.093Z,0.00
2018-01-20T02:48:43.064Z,0.00
2018-01-20T02:50:35.899Z,0.00
2018-01-20T02:51:35.856Z,0.00
2018-01-20T02:53:28.687Z,0.00
2018-01-20T02:54:28.657Z,0.00
2018-01-20T02:56:21.496Z,0.00
2018-01-20T02:57:21.461Z,0.00
2018-01-20T02:59:14.277Z,0.00
2018-01-20T03:00:14.246Z,0.00
2018-01-20T03:02:07.081Z,0.00
2018-01-20T03:03:07.040Z,0.00
2018-01-20T03:04:59.856Z,0.00
2018-01-20T03:05:59.834Z,0.00
2018-01-20T03:07:53.658Z,0.00
2018-01-20T03:08:53.618Z,0.00
2018-01-20T03:10:46.445Z,0.00
2018-01-20T03:11:46.416Z,0.00
2018-01-20T03:13:39.249Z,0.00
2018-01-20T03:14:39.212Z,0.00
2018-01-20T03:16:32.039Z,0.00
2018-01-20T03:17:32.016Z,0.00
2018-01-20T03:19:24.859Z,0.00
2018-01-20T03:20:24.804Z,0.00
2018-01-20T03:22:17.626Z,0.00
2018-01-20T03:23:17.595Z,0.00
2018-01-20T03:25:10.432Z,0.00
2018-01-20T03:26:10.389Z,0.00
2018-01-20T03:28:03.212Z,0.00
2018-01-20T03:29:03.185Z,0.00
2018-01-20T03:30:56.014Z,0.00
2018-01-20T03:31:55.976Z,0.00
2018-01-20T03:33:48.800Z,0.00
2018-01-20T03:34:48.777Z,0.00
2018-01-20T03:36:41.604Z,0.00
2018-01-20T03:37:41.570Z,0.00
2018-01-20T03:39:34.389Z,0.00
2018-01-20T03:40:34.361Z,0.00
2018-01-20T03:42:27.203Z,0.00
2018-01-20T03:43:27.162Z,0.00
2018-01-20T03:45:19.998Z,0.00
2018-01-20T03:46:19.963Z,0.00
2018-01-20T03:48:12.775Z,0.00
2018-01-20T03:49:12.751Z,0.00
2018-01-20T03:51:05.583Z,0.00
2018-01-20T03:52:05.548Z,0.00
2018-01-20T03:53:58.375Z,0.00
2018-01-20T03:54:58.346Z,0.00
2018-01-20T03:56:51.187Z,0.00
2018-01-20T03:57:51.141Z,0.00
2018-01-20T03:59:43.969Z,0.00
2018-01-20T04:00:43.944Z,0.00
2018-01-20T04:02:36.772Z,0.00
2018-01-20T04:03:36.734Z,0.00
2018-01-20T04:05:29.556Z,0.00
2018-01-20T04:06:29.529Z,0.00
2018-01-20T04:08:22.367Z,0.00
2018-01-20T04:09:22.322Z,0.00
2018-01-20T04:11:15.145Z,0.00
2018-01-20T04:12:15.115Z,0.00
2018-01-20T04:14:07.956Z,0.00
2018-01-20T04:15:07.909Z,0.00
2018-01-20T04:17:00.744Z,0.00
2018-01-20T04:18:00.710Z,0.00
2018-01-20T04:19:53.559Z,0.00
2018-01-20T04:20:53.501Z,0.00
2018-01-20T04:22:46.328Z,0.00
2018-01-20T04:23:46.299Z,0.00
2018-01-20T04:25:39.131Z,0.00
2018-01-20T04:26:39.097Z,0.00
2018-01-20T04:28:31.911Z,0.00
2018-01-20T04:29:31.880Z,0.00
2018-01-20T04:31:24.715Z,0.00
2018-01-20T04:32:24.672Z,0.00
2018-01-20T04:34:17.497Z,0.00
2018-01-20T04:35:17.472Z,0.00
2018-01-20T04:37:10.305Z,0.00
2018-01-20T04:38:10.261Z,0.00
2018-01-20T04:40:03.081Z,0.00
2018-01-20T04:41:03.060Z,0.00
2018-01-20T04:42:55.904Z,0.00
2018-01-20T04:43:55.867Z,0.00
2018-01-20T04:45:48.682Z,0.00
2018-01-20T04:46:48.656Z,0.00
2018-01-20T04:48:41.488Z,0.00
2018-01-20T04:49:41.454Z,0.00
2018-01-20T04:51:34.276Z,0.00
2018-01-20T04:52:34.244Z,0.00
2018-01-20T04:54:27.095Z,0.00
2018-01-20T04:55:27.047Z,0.00
2018-01-20T04:57:19.869Z,0.00
2018-01-20T04:58:19.841Z,0.00
2018-01-20T05:00:12.674Z,0.00
2018-01-20T05:01:12.634Z,0.00
2018-01-20T05:03:05.451Z,0.00
2018-01-20T05:04:05.428Z,0.00
2018-01-20T05:05:58.258Z,0.00
2018-01-20T05:06:58.220Z,0.00
2018-01-20T05:08:51.045Z,0.00
2018-01-20T05:09:51.016Z,0.00
2018-01-20T05:11:43.843Z,0.00
2018-01-20T05:12:43.809Z,0.00
2018-01-20T05:14:36.630Z,0.00
2018-01-20T05:15:36.608Z,0.00
2018-01-20T05:17:29.435Z,0.00
2018-01-20T05:18:29.400Z,0.00
2018-01-20T05:20:22.216Z,0.00
2018-01-20T05:21:22.185Z,0.00
2018-01-20T05:23:15.030Z,0.00
2018-01-20T05:24:14.992Z,0.00
2018-01-20T05:26:07.811Z,0.00
2018-01-20T05:27:07.787Z,0.00
2018-01-20T05:29:00.618Z,0.00
2018-01-20T05:30:00.579Z,0.00
2018-01-20T05:31:53.403Z,0.00
2018-01-20T05:32:53.375Z,0.00
2018-01-20T05:34:46.696Z,0.00
2018-01-20T05:35:46.665Z,0.00
2018-01-20T05:37:39.481Z,0.00
2018-01-20T05:38:39.458Z,0.00
2018-01-20T05:40:32.292Z,0.00
2018-01-20T05:41:32.257Z,0.00
2018-01-20T05:43:25.079Z,0.00
2018-01-20T05:44:25.052Z,0.00
2018-01-20T05:46:17.882Z,0.00
2018-01-20T05:47:17.846Z,0.00
2018-01-20T05:49:10.678Z,0.00
2018-01-20T05:50:10.639Z,0.00
2018-01-20T05:52:03.462Z,0.00
2018-01-20T05:53:03.439Z,0.00
2018-01-20T05:54:56.280Z,0.00
2018-01-20T05:55:56.241Z,0.00
2018-01-20T05:57:49.565Z,0.00
2018-01-20T05:58:49.540Z,0.00
2018-01-20T06:00:42.371Z,0.00
2018-01-20T06:01:42.333Z,0.00
2018-01-20T06:03:35.154Z,0.00
2018-01-20T06:04:35.132Z,4.00
2018-01-20T06:06:27.961Z,0.00
2018-01-20T06:07:27.932Z,0.00
2018-01-20T06:09:20.747Z,0.00
2018-01-20T06:10:20.716Z,0.00
2018-01-20T06:12:13.558Z,0.00
2018-01-20T06:13:13.514Z,0.00
2018-01-20T06:15:06.341Z,0.00
2018-01-20T06:16:06.316Z,0.00
2018-01-20T06:17:59.156Z,0.00
2018-01-20T06:18:59.114Z,0.00
2018-01-20T06:20:51.939Z,0.00
2018-01-20T06:21:51.905Z,0.00
2018-01-20T06:23:44.742Z,0.00
2018-01-20T06:24:44.706Z,0.00
2018-01-20T06:26:37.524Z,0.00
2018-01-20T06:27:37.498Z,0.00
2018-01-20T06:29:30.340Z,0.00
2018-01-20T06:30:30.298Z,0.00
2018-01-20T06:32:23.127Z,0.00
2018-01-20T06:33:23.095Z,0.00
2018-01-20T06:35:15.927Z,0.00
2018-01-20T06:36:15.892Z,0.00
2018-01-20T06:38:08.714Z,0.00
2018-01-20T06:39:08.686Z,0.00
2018-01-20T06:41:01.523Z,0.00
2018-01-20T06:42:01.486Z,0.00
2018-01-20T06:43:54.801Z,0.00
2018-01-20T06:44:54.775Z,0.00
2018-01-20T06:46:47.618Z,0.00
2018-01-20T06:47:47.578Z,0.00
2018-01-20T06:49:40.405Z,4.00
2018-01-20T06:50:40.382Z,4.00
2018-01-20T06:52:33.216Z,0.00
2018-01-20T06:53:33.175Z,0.00
2018-01-20T06:55:25.996Z,4.00
2018-01-20T06:56:25.969Z,4.00
2018-01-20T06:58:18.803Z,0.00
2018-01-20T06:59:18.762Z,4.00
2018-01-20T07:01:11.586Z,4.00
2018-01-20T07:02:11.559Z,12.00
2018-01-20T07:04:04.392Z,8.00
2018-01-20T07:05:04.354Z,12.00
2018-01-20T07:06:57.180Z,8.00
2018-01-20T07:07:57.151Z,12.00
2018-01-20T07:09:50.484Z,24.00
2018-01-20T07:10:50.445Z,20.00
2018-01-20T07:12:43.272Z,24.00
2018-01-20T07:13:43.248Z,28.00
2018-01-20T07:15:36.581Z,32.00
2018-01-20T07:16:36.535Z,40.00
2018-01-20T07:18:29.362Z,40.00
2018-01-20T07:19:29.326Z,56.00
2018-01-20T07:21:22.163Z,76.00
2018-01-20T07:22:22.127Z,68.00
2018-01-20T07:24:15.009Z,68.00
2018-01-20T07:25:14.924Z,64.00
2018-01-20T07:27:08.248Z,56.00
2018-01-20T07:28:08.214Z,68.00
2018-01-20T07:30:01.724Z,64.00
2018-01-20T07:31:01.551Z,80.00
2018-01-20T07:32:54.440Z,84.00
2018-01-20T07:33:54.541Z,76.00
2018-01-20T07:35:47.206Z,108.00
2018-01-20T07:36:47.153Z,120.00
2018-01-20T07:38:39.998Z,156.00
2018-01-20T07:39:39.969Z,148.00
2018-01-20T07:41:33.288Z,184.00
2018-01-20T07:42:33.308Z,180.00
2018-01-20T07:44:26.638Z,192.00
2018-01-20T07:45:26.601Z,156.00
2018-01-20T07:47:19.480Z,176.00
2018-01-20T07:48:19.423Z,144.00
2018-01-20T07:50:12.319Z,140.00
2018-01-20T07:51:12.217Z,140.00
2018-01-20T07:53:05.053Z,120.00
2018-01-20T07:54:05.013Z,108.00
2018-01-20T07:55:57.844Z,148.00
2018-01-20T07:56:57.813Z,172.00
2018-01-20T07:58:51.133Z,124.00
2018-01-20T07:59:51.108Z,108.00
2018-01-20T08:01:44.479Z,176.00
2018-01-20T08:02:44.396Z,172.00
2018-01-20T08:04:37.218Z,168.00
2018-01-20T08:05:37.194Z,172.00
2018-01-20T08:07:30.024Z,200.00
2018-01-20T08:08:29.991Z,296.00
2018-01-20T08:10:23.310Z,284.00
2018-01-20T08:11:23.288Z,192.00
2018-01-20T08:13:16.124Z,300.00
2018-01-20T08:14:16.088Z,384.00
2018-01-20T08:16:08.912Z,428.00
2018-01-20T08:17:08.882Z,424.00
2018-01-20T08:19:01.714Z,432.00
2018-01-20T08:20:01.673Z,404.00
2018-01-20T08:21:54.501Z,472.00
2018-01-20T08:22:54.472Z,484.00
2018-01-20T08:24:47.311Z,452.00
2018-01-20T08:25:47.266Z,500.00
2018-01-20T08:27:40.099Z,532.00
2018-01-20T08:28:40.066Z,544.00
2018-01-20T08:30:32.907Z,652.00
2018-01-20T08:31:32.869Z,628.00
2018-01-20T08:33:26.180Z,624.00
2018-01-20T08:34:26.156Z,632.00
2018-01-20T08:36:19.499Z,700.00
2018-01-20T08:37:19.459Z,660.00
2018-01-20T08:39:12.773Z,572.00
2018-01-20T08:40:12.747Z,496.00
2018-01-20T08:42:06.076Z,672.00
2018-01-20T08:43:06.036Z,748.00
2018-01-20T08:44:59.370Z,752.00
2018-01-20T08:45:59.332Z,768.00
2018-01-20T08:47:52.683Z,796.00
2018-01-20T08:48:52.635Z,800.00
2018-01-20T08:50:45.957Z,844.00
2018-01-20T08:51:45.931Z,872.00
2018-01-20T08:53:39.273Z,976.00
2018-01-20T08:54:39.233Z,1008.00
2018-01-20T08:56:32.060Z,956.00
2018-01-20T08:57:32.025Z,884.00
2018-01-20T08:59:25.396Z,964.00
2018-01-20T09:00:25.360Z,996.00
2018-01-20T09:02:18.229Z,1044.00
2018-01-20T09:03:18.151Z,1028.00
2018-01-20T09:05:12.484Z,1008.00
2018-01-20T09:06:12.445Z,916.00
2018-01-20T09:08:05.780Z,892.00
2018-01-20T09:09:05.755Z,840.00
2018-01-20T09:10:58.723Z,596.00
2018-01-20T09:11:58.562Z,480.00
2018-01-20T09:13:51.386Z,412.00
2018-01-20T09:14:51.357Z,408.00
2018-01-20T09:16:44.219Z,368.00
2018-01-20T09:17:44.169Z,388.00
2018-01-20T09:19:36.990Z,468.00
2018-01-20T09:20:36.969Z,472.00
2018-01-20T09:22:30.292Z,532.00
2018-01-20T09:23:30.256Z,584.00
2018-01-20T09:25:23.581Z,576.00
2018-01-20T09:26:23.553Z,584.00
2018-01-20T09:28:16.893Z,576.00
2018-01-20T09:29:16.851Z,620.00
2018-01-20T09:31:10.261Z,728.00
2018-01-20T09:32:10.234Z,732.00
2018-01-20T09:34:03.074Z,792.00
2018-01-20T09:35:03.042Z,672.00
2018-01-20T09:36:55.878Z,664.00
2018-01-20T09:37:55.839Z,696.00
2018-01-20T09:39:48.676Z,720.00
2018-01-20T09:40:48.637Z,620.00
2018-01-20T09:42:41.458Z,572.00
2018-01-20T09:43:41.431Z,660.00
2018-01-20T09:45:39.882Z,636.00
2018-01-20T09:46:34.738Z,648.00
2018-01-20T09:48:28.065Z,768.00
2018-01-20T09:49:28.041Z,744.00
2018-01-20T09:51:20.877Z,588.00
2018-01-20T09:52:20.835Z,596.00
2018-01-20T09:54:14.154Z,596.00
2018-01-20T09:55:14.134Z,592.00
2018-01-20T09:57:07.532Z,656.00
2018-01-20T09:58:07.493Z,728.00
2018-01-20T10:00:00.955Z,640.00
2018-01-20T10:01:00.785Z,656.00
2018-01-20T10:02:54.129Z,744.00
2018-01-20T10:03:54.076Z,684.00
2018-01-20T10:05:47.400Z,724.00
2018-01-20T10:06:47.374Z,732.00
2018-01-20T10:08:40.703Z,824.00
2018-01-20T10:09:40.668Z,848.00
2018-01-20T10:11:34.053Z,836.00
2018-01-20T10:12:33.972Z,952.00
2018-01-20T10:14:27.343Z,1000.00
2018-01-20T10:15:27.304Z,1220.00
2018-01-20T10:17:20.633Z,1208.00
2018-01-20T10:18:20.610Z,1280.00
2018-01-20T10:20:13.941Z,1312.00
2018-01-20T10:21:13.948Z,1392.00
2018-01-20T10:23:07.241Z,1396.00
2018-01-20T10:24:07.215Z,1368.00
2018-01-20T10:26:00.561Z,1340.00
2018-01-20T10:27:00.516Z,1316.00
2018-01-20T10:28:53.854Z,1340.00
2018-01-20T10:29:53.826Z,1300.00
2018-01-20T10:31:47.170Z,1196.00
2018-01-20T10:32:47.128Z,1124.00
2018-01-20T10:34:40.474Z,1260.00
2018-01-20T10:35:40.423Z,1328.00
2018-01-20T10:37:33.783Z,1384.00
2018-01-20T10:38:33.728Z,1436.00
2018-01-20T10:40:27.252Z,1532.00
2018-01-20T10:41:27.226Z,1484.00
2018-01-20T10:43:20.575Z,1388.00
2018-01-20T10:44:20.524Z,1348.00
2018-01-20T10:46:14.848Z,1280.00
2018-01-20T10:47:14.828Z,1240.00
2018-01-20T10:49:08.166Z,1192.00
2018-01-20T10:50:08.137Z,1172.00
2018-01-20T10:52:01.457Z,1172.00
2018-01-20T10:53:01.485Z,1184.00
2018-01-20T10:54:55.675Z,1196.00
2018-01-20T10:55:55.636Z,1168.00
2018-01-20T10:57:49.943Z,1116.00
2018-01-20T10:58:49.303Z,1120.00
2018-01-20T11:00:42.041Z,1112.00
2018-01-20T11:01:41.820Z,1096.00
2018-01-20T11:03:35.136Z,1036.00
2018-01-20T11:04:35.131Z,1016.00
2018-01-20T11:06:29.771Z,1040.00
2018-01-20T11:07:28.450Z,1004.00
2018-01-20T11:09:21.775Z,988.00
2018-01-20T11:10:22.346Z,972.00
2018-01-20T11:12:15.084Z,1000.00
2018-01-20T11:13:15.046Z,1004.00
2018-01-20T11:15:08.362Z,952.00
2018-01-20T11:16:08.344Z,948.00
2018-01-20T11:18:01.740Z,948.00
2018-01-20T11:19:01.856Z,952.00
2018-01-20T11:20:55.037Z,928.00
2018-01-20T11:21:55.062Z,828.00
2018-01-20T11:23:48.348Z,884.00
2018-01-20T11:24:48.438Z,884.00
2018-01-20T11:26:41.622Z,868.00
2018-01-20T11:27:41.603Z,864.00
2018-01-20T11:29:34.952Z,860.00
2018-01-20T11:30:34.976Z,864.00
2018-01-20T11:32:28.337Z,852.00
2018-01-20T11:33:28.267Z,864.00
2018-01-20T11:35:21.597Z,880.00
2018-01-20T11:36:21.557Z,888.00
2018-01-20T11:38:15.223Z,892.00
2018-01-20T11:39:15.186Z,876.00
2018-01-20T11:41:08.554Z,900.00
2018-01-20T11:42:08.493Z,936.00
2018-01-20T11:44:01.817Z,992.00
2018-01-20T11:45:01.791Z,996.00
2018-01-20T11:46:55.224Z,1048.00
2018-01-20T11:47:55.126Z,1072.00
2018-01-20T11:49:48.423Z,1064.00
2018-01-20T11:50:48.407Z,1060.00
2018-01-20T11:52:41.873Z,1056.00
2018-01-20T11:53:41.745Z,1052.00
2018-01-20T11:55:35.111Z,1036.00
2018-01-20T11:56:35.087Z,1068.00
2018-01-20T11:58:28.444Z,1064.00
2018-01-20T11:59:28.429Z,1032.00
2018-01-20T12:01:21.757Z,972.00
2018-01-20T12:02:21.707Z,980.00
2018-01-20T12:04:15.071Z,1112.00
2018-01-20T12:05:15.020Z,1160.00
2018-01-20T12:07:08.361Z,1124.00
2018-01-20T12:08:08.347Z,1084.00
2018-01-20T12:10:01.685Z,1032.00
2018-01-20T12:11:01.633Z,1012.00
2018-01-20T12:12:54.971Z,944.00
2018-01-20T12:13:54.976Z,932.00
2018-01-20T12:15:48.288Z,936.00
2018-01-20T12:16:48.243Z,1008.00
2018-01-20T12:18:41.588Z,1104.00
2018-01-20T12:19:41.568Z,1132.00
2018-01-20T12:21:34.932Z,1052.00
2018-01-20T12:22:34.878Z,1048.00
2018-01-20T12:24:28.204Z,1060.00
2018-01-20T12:25:28.182Z,1032.00
2018-01-20T12:27:21.512Z,1008.00
2018-01-20T12:28:21.482Z,976.00
2018-01-20T12:30:14.806Z,964.00
2018-01-20T12:31:14.772Z,980.00
2018-01-20T12:33:08.127Z,944.00
2018-01-20T12:34:08.073Z,1012.00
2018-01-20T12:36:01.397Z,1008.00
2018-01-20T12:37:01.377Z,936.00
2018-01-20T12:38:54.715Z,1028.00
2018-01-20T12:39:54.678Z,1144.00
2018-01-20T12:41:48.002Z,1156.00
2018-01-20T12:42:47.998Z,1200.00
2018-01-20T12:44:41.324Z,1324.00
2018-01-20T12:45:41.276Z,1052.00
2018-01-20T12:47:34.625Z,956.00
2018-01-20T12:48:34.604Z,1076.00
2018-01-20T12:50:27.929Z,1156.00
2018-01-20T12:51:27.899Z,952.00
2018-01-20T12:53:22.221Z,1116.00
2018-01-20T12:54:22.188Z,1108.00
2018-01-20T12:56:15.537Z,1236.00
2018-01-20T12:57:15.508Z,1020.00
2018-01-20T12:59:08.831Z,1164.00
2018-01-20T13:00:08.798Z,1044.00
2018-01-20T13:02:03.151Z,824.00
2018-01-20T13:03:03.106Z,776.00
2018-01-20T13:04:56.452Z,624.00
2018-01-20T13:05:56.405Z,648.00
2018-01-20T13:07:49.780Z,688.00
2018-01-20T13:08:49.743Z,672.00
2018-01-20T13:10:43.056Z,712.00
2018-01-20T13:11:43.035Z,700.00
2018-01-20T13:13:36.379Z,636.00
2018-01-20T13:14:36.346Z,716.00
2018-01-20T13:16:29.679Z,640.00
2018-01-20T13:17:29.654Z,620.00
2018-01-20T13:19:23.046Z,528.00
2018-01-20T13:20:22.961Z,568.00
2018-01-20T13:22:16.309Z,644.00
2018-01-20T13:23:16.270Z,640.00
2018-01-20T13:25:09.633Z,696.00
2018-01-20T13:26:09.587Z,636.00
2018-01-20T13:28:02.930Z,564.00
2018-01-20T13:29:02.877Z,628.00
2018-01-20T13:30:56.650Z,708.00
2018-01-20T13:31:56.588Z,628.00
2018-01-20T13:33:49.935Z,752.00
2018-01-20T13:34:49.914Z,596.00
2018-01-20T13:36:43.255Z,572.00
2018-01-20T13:37:43.205Z,520.00
2018-01-20T13:39:36.690Z,364.00
2018-01-20T13:40:36.568Z,416.00
2018-01-20T13:42:29.911Z,420.00
2018-01-20T13:43:29.871Z,376.00
2018-01-20T13:45:23.295Z,404.00
2018-01-20T13:46:23.272Z,452.00
2018-01-20T13:48:16.607Z,464.00
2018-01-20T13:49:16.575Z,492.00
2018-01-20T13:51:09.898Z,524.00
2018-01-20T13:52:09.894Z,508.00
2018-01-20T13:54:03.215Z,520.00
2018-01-20T13:55:03.184Z,428.00
2018-01-20T13:56:56.498Z,360.00
2018-01-20T13:57:56.478Z,420.00
2018-01-20T13:59:50.420Z,432.00
2018-01-20T14:00:49.791Z,456.00
2018-01-20T14:02:43.117Z,416.00
2018-01-20T14:03:43.091Z,428.00
2018-01-20T14:05:37.184Z,352.00
2018-01-20T14:06:37.119Z,292.00
2018-01-20T14:08:30.481Z,320.00
2018-01-20T14:09:30.455Z,296.00
2018-01-20T14:11:23.811Z,256.00
2018-01-20T14:12:23.751Z,248.00
2018-01-20T14:14:17.136Z,260.00
2018-01-20T14:15:17.127Z,260.00
2018-01-20T14:17:10.513Z,232.00
2018-01-20T14:18:10.414Z,220.00
2018-01-20T14:20:03.749Z,280.00
2018-01-20T14:21:03.747Z,248.00
2018-01-20T14:22:57.075Z,216.00
2018-01-20T14:23:57.036Z,228.00
2018-01-20T14:25:50.371Z,240.00
2018-01-20T14:26:50.349Z,248.00
2018-01-20T14:28:44.057Z,264.00
2018-01-20T14:29:44.403Z,288.00
2018-01-20T14:31:36.998Z,268.00
2018-01-20T14:32:36.953Z,260.00
2018-01-20T14:34:30.307Z,252.00
2018-01-20T14:35:30.280Z,252.00
2018-01-20T14:37:23.598Z,252.00
2018-01-20T14:38:23.932Z,260.00
2018-01-20T14:40:16.912Z,228.00
2018-01-20T14:41:17.085Z,184.00
2018-01-20T14:43:10.198Z,232.00
2018-01-20T14:44:10.174Z,252.00
2018-01-20T14:46:04.526Z,220.00
2018-01-20T14:47:04.498Z,196.00
2018-01-20T14:48:57.830Z,180.00
2018-01-20T14:49:57.794Z,180.00
2018-01-20T14:51:51.121Z,140.00
2018-01-20T14:52:51.099Z,132.00
2018-01-20T14:54:44.711Z,132.00
2018-01-20T14:55:44.404Z,128.00
2018-01-20T14:57:37.750Z,128.00
2018-01-20T14:58:37.717Z,144.00
2018-01-20T15:00:31.062Z,148.00
2018-01-20T15:01:31.028Z,152.00
2018-01-20T15:03:24.361Z,144.00
2018-01-20T15:04:24.315Z,140.00
2018-01-20T15:06:17.632Z,136.00
2018-01-20T15:07:17.615Z,128.00
2018-01-20T15:09:10.934Z,120.00
2018-01-20T15:10:10.895Z,108.00
2018-01-20T15:12:04.227Z,100.00
2018-01-20T15:13:04.218Z,100.00
2018-01-20T15:14:57.564Z,88.00
2018-01-20T15:15:57.518Z,88.00
2018-01-20T15:17:50.845Z,88.00
2018-01-20T15:18:50.826Z,84.00
2018-01-20T15:20:44.167Z,84.00
2018-01-20T15:21:44.125Z,76.00
2018-01-20T15:23:37.444Z,72.00
2018-01-20T15:24:37.432Z,68.00
2018-01-20T15:26:30.781Z,56.00
2018-01-20T15:27:30.729Z,52.00
2018-01-20T15:29:24.054Z,64.00
2018-01-20T15:30:24.026Z,68.00
2018-01-20T15:32:17.375Z,80.00
2018-01-20T15:33:17.334Z,84.00
2018-01-20T15:35:11.687Z,76.00
2018-01-20T15:36:11.644Z,72.00
2018-01-20T15:38:04.975Z,56.00
2018-01-20T15:39:04.935Z,48.00
2018-01-20T15:40:58.491Z,44.00
2018-01-20T15:41:58.245Z,40.00
2018-01-20T15:43:51.575Z,36.00
2018-01-20T15:44:51.581Z,28.00
2018-01-20T15:46:44.882Z,28.00
2018-01-20T15:47:44.849Z,24.00
2018-01-20T15:49:38.192Z,20.00
2018-01-20T15:50:38.155Z,20.00
2018-01-20T15:52:31.489Z,16.00
2018-01-20T15:53:31.460Z,20.00
2018-01-20T15:55:24.811Z,16.00
2018-01-20T15:56:24.763Z,16.00
2018-01-20T15:58:18.112Z,16.00
2018-01-20T15:59:18.074Z,12.00
2018-01-20T16:01:11.416Z,16.00
2018-01-20T16:02:11.396Z,12.00
2018-01-20T16:04:04.718Z,12.00
2018-01-20T16:05:04.703Z,12.00
2018-01-20T16:06:58.026Z,8.00
2018-01-20T16:07:57.990Z,8.00
2018-01-20T16:09:51.305Z,8.00
2018-01-20T16:10:51.308Z,4.00
2018-01-20T16:12:44.641Z,4.00
2018-01-20T16:13:44.590Z,4.00
2018-01-20T16:15:37.925Z,8.00
2018-01-20T16:16:37.930Z,8.00
2018-01-20T16:18:31.237Z,4.00
2018-01-20T16:19:31.197Z,4.00
2018-01-20T16:21:24.534Z,4.00
2018-01-20T16:22:24.513Z,4.00
2018-01-20T16:24:17.855Z,4.00
2018-01-20T16:25:17.813Z,4.00
2018-01-20T16:27:11.137Z,4.00
2018-01-20T16:28:11.126Z,4.00
2018-01-20T16:30:04.470Z,0.00
2018-01-20T16:31:04.432Z,0.00
2018-01-20T16:32:57.741Z,0.00
2018-01-20T16:33:57.770Z,0.00
2018-01-20T16:35:51.078Z,0.00
2018-01-20T16:36:51.055Z,0.00
2018-01-20T16:38:44.368Z,0.00
2018-01-20T16:39:44.342Z,4.00
2018-01-20T16:41:37.672Z,4.00
2018-01-20T16:42:37.638Z,4.00
2018-01-20T16:44:30.464Z,4.00
2018-01-20T16:45:30.440Z,4.00
2018-01-20T16:47:23.806Z,0.00
2018-01-20T16:48:23.756Z,0.00
2018-01-20T16:50:17.191Z,4.00
2018-01-20T16:51:17.068Z,4.00
2018-01-20T16:53:10.414Z,4.00
2018-01-20T16:54:10.368Z,4.00
2018-01-20T16:56:03.685Z,4.00
2018-01-20T16:57:03.674Z,4.00
2018-01-20T16:58:57.011Z,4.00
2018-01-20T16:59:56.969Z,4.00
2018-01-20T17:01:51.178Z,4.00
2018-01-20T17:02:51.155Z,4.00
2018-01-20T17:04:44.492Z,4.00
2018-01-20T17:05:44.454Z,4.00
2018-01-20T17:07:37.277Z,4.00
2018-01-20T17:08:37.303Z,4.00
2018-01-20T17:10:30.610Z,4.00
2018-01-20T17:11:30.575Z,4.00
2018-01-20T17:13:23.891Z,4.00
2018-01-20T17:14:23.869Z,4.00
2018-01-20T17:16:16.734Z,4.00
2018-01-20T17:17:16.701Z,4.00
2018-01-20T17:19:10.123Z,4.00
2018-01-20T17:20:09.981Z,4.00
2018-01-20T17:22:03.320Z,4.00
2018-01-20T17:23:03.281Z,4.00
2018-01-20T17:24:56.613Z,4.00
2018-01-20T17:25:56.580Z,4.00
2018-01-20T17:27:49.432Z,4.00
2018-01-20T17:28:49.386Z,4.00
2018-01-20T17:30:42.724Z,4.00
2018-01-20T17:31:42.692Z,4.00
2018-01-20T17:33:36.025Z,4.00
2018-01-20T17:34:35.981Z,4.00
2018-01-20T17:36:29.320Z,4.00
2018-01-20T17:37:29.293Z,4.00
2018-01-20T17:39:22.631Z,4.00
2018-01-20T17:40:22.592Z,4.00
2018-01-20T17:42:15.951Z,4.00
2018-01-20T17:43:15.885Z,4.00
2018-01-20T17:45:09.262Z,4.00
2018-01-20T17:46:09.203Z,4.00
2018-01-20T17:48:02.532Z,4.00
2018-01-20T17:49:02.501Z,4.00
2018-01-20T17:50:55.855Z,4.00
2018-01-20T17:51:55.819Z,4.00
2018-01-20T17:53:49.146Z,4.00
2018-01-20T17:54:49.117Z,4.00
2018-01-20T17:56:42.466Z,4.00
2018-01-20T17:57:42.423Z,4.00
2018-01-20T17:59:35.744Z,4.00
2018-01-20T18:00:35.712Z,4.00
2018-01-20T18:02:29.053Z,4.00
2018-01-20T18:03:29.015Z,4.00
2018-01-20T18:05:22.333Z,4.00
2018-01-20T18:06:22.304Z,4.00
2018-01-20T18:08:15.653Z,4.00
2018-01-20T18:09:15.609Z,4.00
2018-01-20T18:11:08.937Z,4.00
2018-01-20T18:12:08.918Z,4.00
2018-01-20T18:14:02.385Z,4.00
2018-01-20T18:15:02.213Z,4.00
2018-01-20T18:16:55.550Z,4.00
2018-01-20T18:17:55.513Z,4.00
2018-01-20T18:19:48.860Z,4.00
2018-01-20T18:20:48.815Z,4.00
2018-01-20T18:22:42.159Z,4.00
2018-01-20T18:23:42.130Z,4.00
2018-01-20T18:25:35.462Z,4.00
2018-01-20T18:26:35.460Z,4.00
2018-01-20T18:28:28.948Z,4.00
2018-01-20T18:29:28.937Z,4.00
2018-01-20T18:31:22.607Z,4.00
2018-01-20T18:32:22.569Z,4.00
2018-01-20T18:34:16.638Z,4.00